sensor_id;sensor_type;location;lat;lon;timestamp;temperature;humidity
13123;DHT22;6627;50.920;12.050;2023-03-02T00:01:08;-2.00;1.00
13123;DHT22;6627;50.920;12.050;2023-03-02T00:03:38;-2.00;1.00
13123;DHT22;6627;50.920;12.050;2023-03-02T00:06:09;-2.00;1.00
13123;DHT22;6627;50.920;12.050;2023-03-02T00:08:37;-2.00;1.00
13123;DHT22;6627;50.920;12.050;2023-03-02T00:11:05;-2.00;94.60
13123;DHT22;6627;50.920;12.050;2023-03-02T00:13:33;-2.00;99.90
13123;DHT22;6627;50.920;12.050;2023-03-02T00:16:02;-1.90;1.00
13123;DHT22;6627;50.920;12.050;2023-03-02T00:18:30;-1.70;99.90
13123;DHT22;6627;50.920;12.050;2023-03-02T00:20:57;-1.80;1.00
13123;DHT22;6627;50.920;12.050;2023-03-02T00:23:25;-1.90;1.00
13123;DHT22;6627;50.920;12.050;2023-03-02T00:25:52;-1.90;99.90
13123;DHT22;6627;50.920;12.050;2023-03-02T00:28:20;-1.90;99.90
13123;DHT22;6627;50.920;12.050;2023-03-02T00:30:47;-1.80;1.00
13123;DHT22;6627;50.920;12.050;2023-03-02T00:33:14;-1.70;1.00
13123;DHT22;6627;50.920;12.050;2023-03-02T00:35:41;-1.80;99.90
13123;DHT22;6627;50.920;12.050;2023-03-02T00:38:08;-2.00;65.60
13123;DHT22;6627;50.920;12.050;2023-03-02T00:40:37;-2.10;1.00
13123;DHT22;6627;50.920;12.050;2023-03-02T00:43:09;-2.10;1.00
13123;DHT22;6627;50.920;12.050;2023-03-02T00:45:36;-2.00;1.00
13123;DHT22;6627;50.920;12.050;2023-03-02T00:48:03;-1.90;1.00
13123;DHT22;6627;50.920;12.050;2023-03-02T00:50:31;-1.80;99.90
13123;DHT22;6627;50.920;12.050;2023-03-02T00:55:25;-1.80;1.00
13123;DHT22;6627;50.920;12.050;2023-03-02T00:57:54;-2.00;99.90
13123;DHT22;6627;50.920;12.050;2023-03-02T01:00:22;-2.10;1.00
13123;DHT22;6627;50.920;12.050;2023-03-02T01:02:55;-2.10;41.30
13123;DHT22;6627;50.920;12.050;2023-03-02T01:05:23;-2.10;1.00
13123;DHT22;6627;50.920;12.050;2023-03-02T01:08:00;-2.10;99.90
13123;DHT22;6627;50.920;12.050;2023-03-02T01:12:58;-2.00;1.00
13123;DHT22;6627;50.920;12.050;2023-03-02T01:15:33;-1.90;1.00
13123;DHT22;6627;50.920;12.050;2023-03-02T01:18:12;-1.90;99.90
13123;DHT22;6627;50.920;12.050;2023-03-02T01:20:42;-1.80;1.00
13123;DHT22;6627;50.920;12.050;2023-03-02T01:23:14;-2.00;1.00
13123;DHT22;6627;50.920;12.050;2023-03-02T01:25:42;-2.20;99.90
13123;DHT22;6627;50.920;12.050;2023-03-02T01:28:11;-2.20;1.00
13123;DHT22;6627;50.920;12.050;2023-03-02T01:30:46;-2.30;99.90
13123;DHT22;6627;50.920;12.050;2023-03-02T01:33:14;-2.30;99.90
13123;DHT22;6627;50.920;12.050;2023-03-02T01:35:43;-2.30;99.90
13123;DHT22;6627;50.920;12.050;2023-03-02T01:38:11;-1.80;1.00
13123;DHT22;6627;50.920;12.050;2023-03-02T01:40:39;-1.60;1.00
13123;DHT22;6627;50.920;12.050;2023-03-02T01:43:21;-1.80;1.00
13123;DHT22;6627;50.920;12.050;2023-03-02T01:45:52;-1.70;30.70
13123;DHT22;6627;50.920;12.050;2023-03-02T01:48:26;-1.70;1.00
13123;DHT22;6627;50.920;12.050;2023-03-02T01:50:59;-1.80;99.90
13123;DHT22;6627;50.920;12.050;2023-03-02T01:53:31;-1.90;99.90
13123;DHT22;6627;50.920;12.050;2023-03-02T01:56:03;-1.90;99.90
13123;DHT22;6627;50.920;12.050;2023-03-02T01:58:35;-2.00;1.00
13123;DHT22;6627;50.920;12.050;2023-03-02T02:01:04;-2.10;99.90
13123;DHT22;6627;50.920;12.050;2023-03-02T02:03:43;-2.10;99.90
13123;DHT22;6627;50.920;12.050;2023-03-02T02:06:19;-2.00;18.10
13123;DHT22;6627;50.920;12.050;2023-03-02T02:08:51;-2.00;1.00
13123;DHT22;6627;50.920;12.050;2023-03-02T02:11:29;-2.20;1.00
13123;DHT22;6627;50.920;12.050;2023-03-02T02:16:32;-2.40;1.00
13123;DHT22;6627;50.920;12.050;2023-03-02T02:19:04;-2.30;1.00
13123;DHT22;6627;50.920;12.050;2023-03-02T02:22:00;-2.30;1.00
13123;DHT22;6627;50.920;12.050;2023-03-02T02:24:52;-2.30;99.90
13123;DHT22;6627;50.920;12.050;2023-03-02T02:27:25;-2.30;1.00
13123;DHT22;6627;50.920;12.050;2023-03-02T02:30:02;-2.20;1.00
13123;DHT22;6627;50.920;12.050;2023-03-02T02:32:35;-2.50;99.90
13123;DHT22;6627;50.920;12.050;2023-03-02T02:35:12;-2.60;99.90
13123;DHT22;6627;50.920;12.050;2023-03-02T02:37:46;-2.60;1.00
13123;DHT22;6627;50.920;12.050;2023-03-02T02:40:42;-2.50;1.00
13123;DHT22;6627;50.920;12.050;2023-03-02T02:43:34;-2.60;1.00
13123;DHT22;6627;50.920;12.050;2023-03-02T02:46:22;-2.70;99.90
13123;DHT22;6627;50.920;12.050;2023-03-02T02:49:17;-2.70;1.00
13123;DHT22;6627;50.920;12.050;2023-03-02T02:51:53;-2.70;1.00
13123;DHT22;6627;50.920;12.050;2023-03-02T02:54:22;-2.60;1.00
13123;DHT22;6627;50.920;12.050;2023-03-02T02:56:51;-2.90;99.90
13123;DHT22;6627;50.920;12.050;2023-03-02T02:59:24;-2.90;99.90
13123;DHT22;6627;50.920;12.050;2023-03-02T03:01:55;-3.00;1.00
13123;DHT22;6627;50.920;12.050;2023-03-02T03:04:26;-3.00;99.90
13123;DHT22;6627;50.920;12.050;2023-03-02T03:06:57;-2.90;99.90
13123;DHT22;6627;50.920;12.050;2023-03-02T03:09:26;-2.70;21.10
13123;DHT22;6627;50.920;12.050;2023-03-02T03:11:56;-2.80;1.00
13123;DHT22;6627;50.920;12.050;2023-03-02T03:14:32;-2.90;1.00
13123;DHT22;6627;50.920;12.050;2023-03-02T03:17:02;-2.90;1.00
13123;DHT22;6627;50.920;12.050;2023-03-02T03:19:38;-2.90;62.60
13123;DHT22;6627;50.920;12.050;2023-03-02T03:22:07;-2.80;74.00
13123;DHT22;6627;50.920;12.050;2023-03-02T03:24:38;-2.80;1.00
13123;DHT22;6627;50.920;12.050;2023-03-02T03:27:08;-2.90;1.00
13123;DHT22;6627;50.920;12.050;2023-03-02T03:29:40;-2.90;13.50
13123;DHT22;6627;50.920;12.050;2023-03-02T03:32:09;-3.00;99.90
13123;DHT22;6627;50.920;12.050;2023-03-02T03:34:37;-3.00;99.90
13123;DHT22;6627;50.920;12.050;2023-03-02T03:37:06;-3.00;99.90
13123;DHT22;6627;50.920;12.050;2023-03-02T03:39:34;-3.10;99.90
13123;DHT22;6627;50.920;12.050;2023-03-02T03:42:01;-3.00;99.90
13123;DHT22;6627;50.920;12.050;2023-03-02T03:44:29;-3.00;99.90
13123;DHT22;6627;50.920;12.050;2023-03-02T03:46:57;-3.00;99.90
13123;DHT22;6627;50.920;12.050;2023-03-02T03:49:25;-3.10;99.90
13123;DHT22;6627;50.920;12.050;2023-03-02T03:51:54;-3.10;99.90
13123;DHT22;6627;50.920;12.050;2023-03-02T03:54:21;-3.10;99.90
13123;DHT22;6627;50.920;12.050;2023-03-02T03:56:49;-3.10;99.90
13123;DHT22;6627;50.920;12.050;2023-03-02T03:59:19;-3.20;99.90
13123;DHT22;6627;50.920;12.050;2023-03-02T04:01:50;-3.30;1.00
13123;DHT22;6627;50.920;12.050;2023-03-02T04:04:24;-3.30;1.00
13123;DHT22;6627;50.920;12.050;2023-03-02T04:06:53;-3.30;1.00
13123;DHT22;6627;50.920;12.050;2023-03-02T04:09:20;-3.30;1.00
13123;DHT22;6627;50.920;12.050;2023-03-02T04:11:52;-3.20;1.00
13123;DHT22;6627;50.920;12.050;2023-03-02T04:14:23;-3.20;1.00
13123;DHT22;6627;50.920;12.050;2023-03-02T04:16:50;-3.20;1.00
13123;DHT22;6627;50.920;12.050;2023-03-02T04:19:18;-3.10;1.00
13123;DHT22;6627;50.920;12.050;2023-03-02T04:21:51;-3.10;1.00
13123;DHT22;6627;50.920;12.050;2023-03-02T04:24:21;-3.20;1.00
13123;DHT22;6627;50.920;12.050;2023-03-02T04:26:49;-3.20;1.00
13123;DHT22;6627;50.920;12.050;2023-03-02T04:29:17;-3.20;1.00
13123;DHT22;6627;50.920;12.050;2023-03-02T04:31:45;-3.10;1.00
13123;DHT22;6627;50.920;12.050;2023-03-02T04:36:40;-3.00;1.00
13123;DHT22;6627;50.920;12.050;2023-03-02T04:39:10;-2.90;1.00
13123;DHT22;6627;50.920;12.050;2023-03-02T04:41:39;-2.90;1.00
13123;DHT22;6627;50.920;12.050;2023-03-02T04:44:06;-3.00;99.90
13123;DHT22;6627;50.920;12.050;2023-03-02T04:46:34;-3.10;1.00
13123;DHT22;6627;50.920;12.050;2023-03-02T04:49:01;-3.10;99.90
13123;DHT22;6627;50.920;12.050;2023-03-02T04:51:31;-3.10;99.90
13123;DHT22;6627;50.920;12.050;2023-03-02T04:54:01;-3.10;1.00
13123;DHT22;6627;50.920;12.050;2023-03-02T04:56:32;-3.10;1.00
13123;DHT22;6627;50.920;12.050;2023-03-02T04:59:00;-3.20;1.00
13123;DHT22;6627;50.920;12.050;2023-03-02T05:01:27;-3.10;1.00
13123;DHT22;6627;50.920;12.050;2023-03-02T05:03:55;-3.20;1.00
13123;DHT22;6627;50.920;12.050;2023-03-02T05:06:22;-3.20;1.00
13123;DHT22;6627;50.920;12.050;2023-03-02T05:08:51;-3.30;1.00
13123;DHT22;6627;50.920;12.050;2023-03-02T05:11:20;-3.20;1.00
13123;DHT22;6627;50.920;12.050;2023-03-02T05:13:53;-3.30;1.00
13123;DHT22;6627;50.920;12.050;2023-03-02T05:16:23;-3.20;1.00
13123;DHT22;6627;50.920;12.050;2023-03-02T05:18:51;-3.30;1.00
13123;DHT22;6627;50.920;12.050;2023-03-02T05:21:18;-3.40;1.00
13123;DHT22;6627;50.920;12.050;2023-03-02T05:23:45;-3.40;1.00
13123;DHT22;6627;50.920;12.050;2023-03-02T05:26:13;-3.50;28.40
13123;DHT22;6627;50.920;12.050;2023-03-02T05:28:41;-3.40;16.40
13123;DHT22;6627;50.920;12.050;2023-03-02T05:31:13;-3.40;23.40
13123;DHT22;6627;50.920;12.050;2023-03-02T05:33:45;-3.40;80.80
13123;DHT22;6627;50.920;12.050;2023-03-02T05:36:12;-3.50;96.00
13123;DHT22;6627;50.920;12.050;2023-03-02T05:38:39;-3.60;99.90
13123;DHT22;6627;50.920;12.050;2023-03-02T05:41:06;-3.60;99.90
13123;DHT22;6627;50.920;12.050;2023-03-02T05:43:34;-3.50;99.90
13123;DHT22;6627;50.920;12.050;2023-03-02T05:46:02;-3.50;99.90
13123;DHT22;6627;50.920;12.050;2023-03-02T05:48:31;-3.50;99.90
13123;DHT22;6627;50.920;12.050;2023-03-02T05:50:58;-3.50;99.90
13123;DHT22;6627;50.920;12.050;2023-03-02T05:53:25;-3.50;99.90
13123;DHT22;6627;50.920;12.050;2023-03-02T05:55:53;-3.40;99.90
13123;DHT22;6627;50.920;12.050;2023-03-02T05:58:20;-3.30;99.90
13123;DHT22;6627;50.920;12.050;2023-03-02T06:00:48;-3.50;99.90
13123;DHT22;6627;50.920;12.050;2023-03-02T06:03:15;-3.60;99.90
13123;DHT22;6627;50.920;12.050;2023-03-02T06:05:44;-3.50;99.90
13123;DHT22;6627;50.920;12.050;2023-03-02T06:08:15;-3.40;99.90
13123;DHT22;6627;50.920;12.050;2023-03-02T06:10:43;-3.30;99.90
13123;DHT22;6627;50.920;12.050;2023-03-02T06:13:10;-3.30;99.90
13123;DHT22;6627;50.920;12.050;2023-03-02T06:15:38;-3.30;99.90
13123;DHT22;6627;50.920;12.050;2023-03-02T06:18:05;-3.30;99.90
13123;DHT22;6627;50.920;12.050;2023-03-02T06:20:32;-3.50;99.90
13123;DHT22;6627;50.920;12.050;2023-03-02T06:23:01;-3.60;99.90
13123;DHT22;6627;50.920;12.050;2023-03-02T06:25:28;-3.60;99.90
13123;DHT22;6627;50.920;12.050;2023-03-02T06:27:55;-3.60;99.90
13123;DHT22;6627;50.920;12.050;2023-03-02T06:30:24;-3.40;99.90
13123;DHT22;6627;50.920;12.050;2023-03-02T06:32:52;-3.40;99.90
13123;DHT22;6627;50.920;12.050;2023-03-02T06:35:20;-3.60;99.90
13123;DHT22;6627;50.920;12.050;2023-03-02T06:37:48;-3.50;99.90
13123;DHT22;6627;50.920;12.050;2023-03-02T06:40:17;-3.40;99.90
13123;DHT22;6627;50.920;12.050;2023-03-02T06:42:46;-3.40;99.90
13123;DHT22;6627;50.920;12.050;2023-03-02T06:45:13;-3.20;99.90
13123;DHT22;6627;50.920;12.050;2023-03-02T06:47:40;-3.20;99.90
13123;DHT22;6627;50.920;12.050;2023-03-02T06:50:08;-3.20;99.90
13123;DHT22;6627;50.920;12.050;2023-03-02T06:52:36;-3.10;99.90
13123;DHT22;6627;50.920;12.050;2023-03-02T06:55:05;-3.20;99.90
13123;DHT22;6627;50.920;12.050;2023-03-02T06:57:34;-3.10;99.90
13123;DHT22;6627;50.920;12.050;2023-03-02T07:00:03;-3.10;99.90
13123;DHT22;6627;50.920;12.050;2023-03-02T07:05:04;-3.00;99.90
13123;DHT22;6627;50.920;12.050;2023-03-02T07:07:32;-2.90;99.90
13123;DHT22;6627;50.920;12.050;2023-03-02T07:09:59;-2.70;44.00
13123;DHT22;6627;50.920;12.050;2023-03-02T07:12:26;-2.70;18.40
13123;DHT22;6627;50.920;12.050;2023-03-02T07:17:22;-2.60;18.20
13123;DHT22;6627;50.920;12.050;2023-03-02T07:19:49;-2.50;1.00
13123;DHT22;6627;50.920;12.050;2023-03-02T07:22:16;-2.50;1.00
13123;DHT22;6627;50.920;12.050;2023-03-02T07:24:43;-2.40;1.00
13123;DHT22;6627;50.920;12.050;2023-03-02T07:27:11;-2.30;1.00
13123;DHT22;6627;50.920;12.050;2023-03-02T07:29:38;-2.40;1.00
13123;DHT22;6627;50.920;12.050;2023-03-02T07:32:06;-2.30;1.00
13123;DHT22;6627;50.920;12.050;2023-03-02T07:34:33;-2.20;1.00
13123;DHT22;6627;50.920;12.050;2023-03-02T07:37:00;-2.10;1.00
13123;DHT22;6627;50.920;12.050;2023-03-02T07:39:28;-2.00;1.00
13123;DHT22;6627;50.920;12.050;2023-03-02T07:41:57;-1.80;99.90
13123;DHT22;6627;50.920;12.050;2023-03-02T07:44:25;-1.70;99.90
13123;DHT22;6627;50.920;12.050;2023-03-02T07:46:53;-1.70;25.20
13123;DHT22;6627;50.920;12.050;2023-03-02T07:49:22;-1.50;1.00
13123;DHT22;6627;50.920;12.050;2023-03-02T07:51:49;-1.40;1.00
13123;DHT22;6627;50.920;12.050;2023-03-02T07:54:16;-1.40;99.90
13123;DHT22;6627;50.920;12.050;2023-03-02T07:56:43;-1.30;99.90
13123;DHT22;6627;50.920;12.050;2023-03-02T07:59:11;-1.20;1.00
13123;DHT22;6627;50.920;12.050;2023-03-02T08:01:38;-1.10;1.00
13123;DHT22;6627;50.920;12.050;2023-03-02T08:04:05;-1.00;1.00
13123;DHT22;6627;50.920;12.050;2023-03-02T08:06:34;-0.80;99.90
13123;DHT22;6627;50.920;12.050;2023-03-02T08:09:02;-0.80;99.90
13123;DHT22;6627;50.920;12.050;2023-03-02T08:11:30;-0.70;1.00
13123;DHT22;6627;50.920;12.050;2023-03-02T08:13:58;-0.60;99.90
13123;DHT22;6627;50.920;12.050;2023-03-02T08:16:27;-0.50;99.90
13123;DHT22;6627;50.920;12.050;2023-03-02T08:18:55;-0.50;99.90
13123;DHT22;6627;50.920;12.050;2023-03-02T08:21:24;-0.20;1.00
13123;DHT22;6627;50.920;12.050;2023-03-02T08:23:54;-0.20;32.50
13123;DHT22;6627;50.920;12.050;2023-03-02T08:26:21;-0.10;99.90
13123;DHT22;6627;50.920;12.050;2023-03-02T08:31:15;1.40;1.00
13123;DHT22;6627;50.920;12.050;2023-03-02T08:33:42;0.20;1.00
13123;DHT22;6627;50.920;12.050;2023-03-02T08:36:12;0.30;1.00
13123;DHT22;6627;50.920;12.050;2023-03-02T08:38:41;0.30;1.00
13123;DHT22;6627;50.920;12.050;2023-03-02T08:41:13;0.40;99.90
13123;DHT22;6627;50.920;12.050;2023-03-02T08:43:41;0.50;99.90
13123;DHT22;6627;50.920;12.050;2023-03-02T08:46:10;0.70;99.90
13123;DHT22;6627;50.920;12.050;2023-03-02T08:48:38;0.80;1.00
13123;DHT22;6627;50.920;12.050;2023-03-02T08:51:07;0.90;1.00
13123;DHT22;6627;50.920;12.050;2023-03-02T08:53:39;1.00;99.90
13123;DHT22;6627;50.920;12.050;2023-03-02T08:56:21;1.10;99.90
13123;DHT22;6627;50.920;12.050;2023-03-02T08:58:51;1.30;99.90
13123;DHT22;6627;50.920;12.050;2023-03-02T09:01:22;1.50;1.00
13123;DHT22;6627;50.920;12.050;2023-03-02T09:03:50;1.70;66.90
13123;DHT22;6627;50.920;12.050;2023-03-02T09:06:18;1.90;1.00
13123;DHT22;6627;50.920;12.050;2023-03-02T09:08:45;2.00;1.00
13123;DHT22;6627;50.920;12.050;2023-03-02T09:11:13;2.10;99.90
13123;DHT22;6627;50.920;12.050;2023-03-02T09:13:42;2.30;99.90
13123;DHT22;6627;50.920;12.050;2023-03-02T09:16:11;2.30;99.90
13123;DHT22;6627;50.920;12.050;2023-03-02T09:18:38;2.40;1.00
13123;DHT22;6627;50.920;12.050;2023-03-02T09:21:07;2.50;1.00
13123;DHT22;6627;50.920;12.050;2023-03-02T09:23:34;2.60;1.00
13123;DHT22;6627;50.920;12.050;2023-03-02T09:26:02;2.70;1.00
13123;DHT22;6627;50.920;12.050;2023-03-02T09:28:30;2.80;1.00
13123;DHT22;6627;50.920;12.050;2023-03-02T09:31:00;2.90;1.00
13123;DHT22;6627;50.920;12.050;2023-03-02T09:33:30;3.10;99.90
13123;DHT22;6627;50.920;12.050;2023-03-02T09:35:57;3.20;99.90
13123;DHT22;6627;50.920;12.050;2023-03-02T09:38:26;3.30;99.90
13123;DHT22;6627;50.920;12.050;2023-03-02T09:41:06;3.40;98.70
13123;DHT22;6627;50.920;12.050;2023-03-02T09:43:52;3.50;1.00
13123;DHT22;6627;50.920;12.050;2023-03-02T09:46:31;3.50;1.00
13123;DHT22;6627;50.920;12.050;2023-03-02T09:49:13;3.60;1.00
13123;DHT22;6627;50.920;12.050;2023-03-02T09:52:01;3.60;1.00
13123;DHT22;6627;50.920;12.050;2023-03-02T09:54:37;3.80;1.00
13123;DHT22;6627;50.920;12.050;2023-03-02T09:57:18;3.70;99.90
13123;DHT22;6627;50.920;12.050;2023-03-02T10:04:55;4.00;99.90
13123;DHT22;6627;50.920;12.050;2023-03-02T10:09:57;4.10;5.70
13123;DHT22;6627;50.920;12.050;2023-03-02T10:12:46;4.10;1.00
13123;DHT22;6627;50.920;12.050;2023-03-02T10:18:05;4.30;1.00
13123;DHT22;6627;50.920;12.050;2023-03-02T10:20:44;4.50;1.00
13123;DHT22;6627;50.920;12.050;2023-03-02T10:23:36;4.60;1.00
13123;DHT22;6627;50.920;12.050;2023-03-02T10:26:14;4.70;1.00
13123;DHT22;6627;50.920;12.050;2023-03-02T10:28:54;4.80;1.00
13123;DHT22;6627;50.920;12.050;2023-03-02T10:31:30;4.80;99.90
13123;DHT22;6627;50.920;12.050;2023-03-02T10:36:29;5.00;99.90
13123;DHT22;6627;50.920;12.050;2023-03-02T10:38:58;5.20;99.90
13123;DHT22;6627;50.920;12.050;2023-03-02T10:41:30;5.30;99.90
13123;DHT22;6627;50.920;12.050;2023-03-02T10:44:04;5.30;89.40
13123;DHT22;6627;50.920;12.050;2023-03-02T10:46:44;5.40;12.90
13123;DHT22;6627;50.920;12.050;2023-03-02T10:49:40;5.40;1.00
13123;DHT22;6627;50.920;12.050;2023-03-02T10:52:12;5.40;1.00
13123;DHT22;6627;50.920;12.050;2023-03-02T10:54:41;5.50;1.00
13123;DHT22;6627;50.920;12.050;2023-03-02T10:57:28;5.70;1.00
13123;DHT22;6627;50.920;12.050;2023-03-02T11:00:03;5.70;99.90
13123;DHT22;6627;50.920;12.050;2023-03-02T11:02:47;5.80;99.90
13123;DHT22;6627;50.920;12.050;2023-03-02T11:05:25;5.90;99.90
13123;DHT22;6627;50.920;12.050;2023-03-02T11:07:57;6.20;99.90
13123;DHT22;6627;50.920;12.050;2023-03-02T11:10:28;6.20;99.90
13123;DHT22;6627;50.920;12.050;2023-03-02T11:12:57;6.10;12.30
13123;DHT22;6627;50.920;12.050;2023-03-02T11:15:33;6.30;1.00
13123;DHT22;6627;50.920;12.050;2023-03-02T11:20:44;6.50;1.00
13123;DHT22;6627;50.920;12.050;2023-03-02T11:23:22;6.60;1.00
13123;DHT22;6627;50.920;12.050;2023-03-02T11:25:59;6.80;1.00
13123;DHT22;6627;50.920;12.050;2023-03-02T11:31:16;6.90;99.90
13123;DHT22;6627;50.920;12.050;2023-03-02T11:34:01;7.00;99.90
13123;DHT22;6627;50.920;12.050;2023-03-02T11:36:45;7.10;99.90
13123;DHT22;6627;50.920;12.050;2023-03-02T11:39:24;7.10;99.90
13123;DHT22;6627;50.920;12.050;2023-03-02T11:41:58;7.40;99.90
13123;DHT22;6627;50.920;12.050;2023-03-02T11:44:25;7.40;99.90
13123;DHT22;6627;50.920;12.050;2023-03-02T11:46:58;7.40;32.80
13123;DHT22;6627;50.920;12.050;2023-03-02T11:52:16;7.50;1.00
13123;DHT22;6627;50.920;12.050;2023-03-02T11:54:48;7.40;1.00
13123;DHT22;6627;50.920;12.050;2023-03-02T11:57:24;7.60;1.00
13123;DHT22;6627;50.920;12.050;2023-03-02T11:59:55;7.80;1.00
13123;DHT22;6627;50.920;12.050;2023-03-02T12:02:24;7.70;1.00
13123;DHT22;6627;50.920;12.050;2023-03-02T12:05:02;7.60;1.00
13123;DHT22;6627;50.920;12.050;2023-03-02T12:07:32;7.70;1.00
13123;DHT22;6627;50.920;12.050;2023-03-02T12:10:02;7.70;99.90
13123;DHT22;6627;50.920;12.050;2023-03-02T12:12:37;7.80;99.90
13123;DHT22;6627;50.920;12.050;2023-03-02T12:15:26;7.80;99.90
13123;DHT22;6627;50.920;12.050;2023-03-02T12:17:59;7.80;99.90
13123;DHT22;6627;50.920;12.050;2023-03-02T12:20:28;7.80;99.90
13123;DHT22;6627;50.920;12.050;2023-03-02T12:23:08;7.90;99.90
13123;DHT22;6627;50.920;12.050;2023-03-02T12:25:47;8.00;99.90
13123;DHT22;6627;50.920;12.050;2023-03-02T12:28:31;8.00;99.50
13123;DHT22;6627;50.920;12.050;2023-03-02T12:33:45;8.10;1.00
13123;DHT22;6627;50.920;12.050;2023-03-02T12:36:19;8.10;1.00
13123;DHT22;6627;50.920;12.050;2023-03-02T12:39:03;7.90;1.00
13123;DHT22;6627;50.920;12.050;2023-03-02T12:41:54;8.00;1.00
13123;DHT22;6627;50.920;12.050;2023-03-02T12:44:50;8.30;1.00
13123;DHT22;6627;50.920;12.050;2023-03-02T12:47:25;8.50;1.00
13123;DHT22;6627;50.920;12.050;2023-03-02T12:49:56;8.60;1.00
13123;DHT22;6627;50.920;12.050;2023-03-02T12:52:29;8.60;1.00
13123;DHT22;6627;50.920;12.050;2023-03-02T12:57:46;8.40;1.00
13123;DHT22;6627;50.920;12.050;2023-03-02T13:00:16;8.60;1.00
13123;DHT22;6627;50.920;12.050;2023-03-02T13:02:47;8.70;1.00
13123;DHT22;6627;50.920;12.050;2023-03-02T13:05:17;8.70;1.00
13123;DHT22;6627;50.920;12.050;2023-03-02T13:07:54;8.60;1.00
13123;DHT22;6627;50.920;12.050;2023-03-02T13:10:29;8.60;1.00
13123;DHT22;6627;50.920;12.050;2023-03-02T13:13:02;8.60;1.00
13123;DHT22;6627;50.920;12.050;2023-03-02T13:15:47;8.70;1.00
13123;DHT22;6627;50.920;12.050;2023-03-02T13:18:16;8.70;1.00
13123;DHT22;6627;50.920;12.050;2023-03-02T13:20:44;8.70;1.00
13123;DHT22;6627;50.920;12.050;2023-03-02T13:23:13;8.90;1.00
13123;DHT22;6627;50.920;12.050;2023-03-02T13:25:49;8.90;1.00
13123;DHT22;6627;50.920;12.050;2023-03-02T13:28:24;9.00;1.00
13123;DHT22;6627;50.920;12.050;2023-03-02T13:30:58;9.00;99.90
13123;DHT22;6627;50.920;12.050;2023-03-02T13:33:29;9.00;99.90
13123;DHT22;6627;50.920;12.050;2023-03-02T13:38:30;8.70;99.90
13123;DHT22;6627;50.920;12.050;2023-03-02T13:41:01;8.80;99.90
13123;DHT22;6627;50.920;12.050;2023-03-02T13:43:36;8.90;99.90
13123;DHT22;6627;50.920;12.050;2023-03-02T13:46:23;8.90;99.90
13123;DHT22;6627;50.920;12.050;2023-03-02T13:48:57;9.00;99.90
13123;DHT22;6627;50.920;12.050;2023-03-02T13:51:26;8.90;99.90
13123;DHT22;6627;50.920;12.050;2023-03-02T13:53:59;8.90;99.90
13123;DHT22;6627;50.920;12.050;2023-03-02T13:56:31;8.90;99.90
13123;DHT22;6627;50.920;12.050;2023-03-02T13:59:03;8.90;99.90
13123;DHT22;6627;50.920;12.050;2023-03-02T14:01:31;9.00;99.90
13123;DHT22;6627;50.920;12.050;2023-03-02T14:03:58;9.00;99.90
13123;DHT22;6627;50.920;12.050;2023-03-02T14:06:26;9.00;99.90
13123;DHT22;6627;50.920;12.050;2023-03-02T14:08:53;9.00;99.90
13123;DHT22;6627;50.920;12.050;2023-03-02T14:11:20;9.00;99.90
13123;DHT22;6627;50.920;12.050;2023-03-02T14:13:52;9.00;99.90
13123;DHT22;6627;50.920;12.050;2023-03-02T14:16:20;9.00;99.90
13123;DHT22;6627;50.920;12.050;2023-03-02T14:18:49;9.10;99.90
13123;DHT22;6627;50.920;12.050;2023-03-02T14:23:47;9.00;99.90
13123;DHT22;6627;50.920;12.050;2023-03-02T14:26:25;9.00;99.90
13123;DHT22;6627;50.920;12.050;2023-03-02T14:28:58;9.00;99.90
13123;DHT22;6627;50.920;12.050;2023-03-02T14:31:27;8.90;99.90
13123;DHT22;6627;50.920;12.050;2023-03-02T14:33:54;9.00;99.90
13123;DHT22;6627;50.920;12.050;2023-03-02T14:36:26;9.10;99.90
13123;DHT22;6627;50.920;12.050;2023-03-02T14:39:00;9.00;99.90
13123;DHT22;6627;50.920;12.050;2023-03-02T14:41:29;8.90;99.90
13123;DHT22;6627;50.920;12.050;2023-03-02T14:43:57;9.00;99.90
13123;DHT22;6627;50.920;12.050;2023-03-02T14:46:25;9.10;99.90
13123;DHT22;6627;50.920;12.050;2023-03-02T14:48:52;9.10;99.90
13123;DHT22;6627;50.920;12.050;2023-03-02T14:51:22;9.10;99.90
13123;DHT22;6627;50.920;12.050;2023-03-02T14:53:54;8.90;99.90
13123;DHT22;6627;50.920;12.050;2023-03-02T14:56:24;8.80;99.90
13123;DHT22;6627;50.920;12.050;2023-03-02T14:58:52;8.80;99.90
13123;DHT22;6627;50.920;12.050;2023-03-02T15:01:21;8.90;99.90
13123;DHT22;6627;50.920;12.050;2023-03-02T15:03:49;9.00;99.90
13123;DHT22;6627;50.920;12.050;2023-03-02T15:06:24;9.20;99.90
13123;DHT22;6627;50.920;12.050;2023-03-02T15:08:54;9.00;99.90
13123;DHT22;6627;50.920;12.050;2023-03-02T15:11:22;8.80;99.90
13123;DHT22;6627;50.920;12.050;2023-03-02T15:13:50;9.00;99.90
13123;DHT22;6627;50.920;12.050;2023-03-02T15:16:17;9.30;99.90
13123;DHT22;6627;50.920;12.050;2023-03-02T15:18:47;9.00;99.90
13123;DHT22;6627;50.920;12.050;2023-03-02T15:21:17;9.10;99.90
13123;DHT22;6627;50.920;12.050;2023-03-02T15:23:45;9.10;99.90
13123;DHT22;6627;50.920;12.050;2023-03-02T15:26:13;9.20;99.90
13123;DHT22;6627;50.920;12.050;2023-03-02T15:28:40;9.00;99.90
13123;DHT22;6627;50.920;12.050;2023-03-02T15:31:11;9.30;99.90
13123;DHT22;6627;50.920;12.050;2023-03-02T15:33:41;9.20;99.90
13123;DHT22;6627;50.920;12.050;2023-03-02T15:36:11;9.00;99.90
13123;DHT22;6627;50.920;12.050;2023-03-02T15:38:39;8.90;99.90
13123;DHT22;6627;50.920;12.050;2023-03-02T15:41:08;9.30;99.90
13123;DHT22;6627;50.920;12.050;2023-03-02T15:43:37;9.10;99.90
13123;DHT22;6627;50.920;12.050;2023-03-02T15:46:05;9.00;99.90
13123;DHT22;6627;50.920;12.050;2023-03-02T15:48:34;9.20;99.90
13123;DHT22;6627;50.920;12.050;2023-03-02T15:51:04;9.10;99.90
13123;DHT22;6627;50.920;12.050;2023-03-02T15:56:04;8.50;99.90
13123;DHT22;6627;50.920;12.050;2023-03-02T15:58:32;8.90;99.90
13123;DHT22;6627;50.920;12.050;2023-03-02T16:00:59;8.70;99.90
13123;DHT22;6627;50.920;12.050;2023-03-02T16:03:32;8.70;99.90
13123;DHT22;6627;50.920;12.050;2023-03-02T16:06:00;8.20;99.90
13123;DHT22;6627;50.920;12.050;2023-03-02T16:08:27;8.40;99.90
13123;DHT22;6627;50.920;12.050;2023-03-02T16:18:25;8.20;99.90
13123;DHT22;6627;50.920;12.050;2023-03-02T16:20:53;7.80;99.90
13123;DHT22;6627;50.920;12.050;2023-03-02T16:23:20;7.90;99.90
13123;DHT22;6627;50.920;12.050;2023-03-02T16:25:47;7.60;99.90
13123;DHT22;6627;50.920;12.050;2023-03-02T16:28:17;6.90;99.90
13123;DHT22;6627;50.920;12.050;2023-03-02T16:30:46;7.10;99.90
13123;DHT22;6627;50.920;12.050;2023-03-02T16:33:16;7.30;99.90
13123;DHT22;6627;50.920;12.050;2023-03-02T16:35:44;6.60;99.90
13123;DHT22;6627;50.920;12.050;2023-03-02T16:38:11;6.60;99.90
13123;DHT22;6627;50.920;12.050;2023-03-02T16:40:39;6.40;99.90
13123;DHT22;6627;50.920;12.050;2023-03-02T16:43:06;6.10;99.90
13123;DHT22;6627;50.920;12.050;2023-03-02T16:45:36;5.80;99.90
13123;DHT22;6627;50.920;12.050;2023-03-02T16:48:04;5.70;99.90
13123;DHT22;6627;50.920;12.050;2023-03-02T16:50:32;6.00;99.90
13123;DHT22;6627;50.920;12.050;2023-03-02T16:52:59;5.70;99.90
13123;DHT22;6627;50.920;12.050;2023-03-02T16:55:26;5.30;99.90
13123;DHT22;6627;50.920;12.050;2023-03-02T16:57:54;5.30;99.90
13123;DHT22;6627;50.920;12.050;2023-03-02T17:00:22;5.00;1.00
13123;DHT22;6627;50.920;12.050;2023-03-02T17:02:51;5.00;1.00
13123;DHT22;6627;50.920;12.050;2023-03-02T17:05:19;4.80;1.00
13123;DHT22;6627;50.920;12.050;2023-03-02T17:07:47;4.50;1.00